sensor_id;sensor_type;location;lat;lon;timestamp;P1;durP1;ratioP1;P2;durP2;ratioP2
7027;SDS011;3555;53.248;10.336;2022-10-31T00:01:21;9.55;;;4.97;;
7027;SDS011;3555;53.248;10.336;2022-10-31T00:03:50;11.30;;;5.38;;
7027;SDS011;3555;53.248;10.336;2022-10-31T00:06:18;7.13;;;5.15;;
7027;SDS011;3555;53.248;10.336;2022-10-31T00:08:45;10.23;;;5.28;;
7027;SDS011;3555;53.248;10.336;2022-10-31T00:11:11;11.35;;;5.00;;
7027;SDS011;3555;53.248;10.336;2022-10-31T00:13:38;13.27;;;6.90;;
7027;SDS011;3555;53.248;10.336;2022-10-31T00:16:06;10.52;;;5.30;;
7027;SDS011;3555;53.248;10.336;2022-10-31T00:18:39;8.52;;;5.85;;
7027;SDS011;3555;53.248;10.336;2022-10-31T00:21:07;11.95;;;5.20;;
7027;SDS011;3555;53.248;10.336;2022-10-31T00:23:34;9.98;;;5.40;;
7027;SDS011;3555;53.248;10.336;2022-10-31T00:26:01;11.93;;;5.80;;
7027;SDS011;3555;53.248;10.336;2022-10-31T00:28:29;9.82;;;5.05;;
7027;SDS011;3555;53.248;10.336;2022-10-31T00:30:58;9.90;;;5.50;;
7027;SDS011;3555;53.248;10.336;2022-10-31T00:33:25;12.23;;;5.43;;
7027;SDS011;3555;53.248;10.336;2022-10-31T00:35:52;13.77;;;5.97;;
7027;SDS011;3555;53.248;10.336;2022-10-31T00:38:21;9.05;;;5.72;;
7027;SDS011;3555;53.248;10.336;2022-10-31T00:40:48;9.63;;;5.85;;
7027;SDS011;3555;53.248;10.336;2022-10-31T00:43:15;13.18;;;6.85;;
7027;SDS011;3555;53.248;10.336;2022-10-31T00:45:41;13.30;;;5.82;;
7027;SDS011;3555;53.248;10.336;2022-10-31T00:48:08;9.27;;;5.47;;
7027;SDS011;3555;53.248;10.336;2022-10-31T00:50:35;14.90;;;6.18;;
7027;SDS011;3555;53.248;10.336;2022-10-31T00:53:03;10.57;;;6.32;;
7027;SDS011;3555;53.248;10.336;2022-10-31T00:55:31;11.02;;;6.18;;
7027;SDS011;3555;53.248;10.336;2022-10-31T00:57:58;13.75;;;6.00;;
7027;SDS011;3555;53.248;10.336;2022-10-31T01:00:24;12.23;;;5.57;;
7027;SDS011;3555;53.248;10.336;2022-10-31T01:02:52;9.07;;;6.53;;
7027;SDS011;3555;53.248;10.336;2022-10-31T01:05:18;14.93;;;5.88;;
7027;SDS011;3555;53.248;10.336;2022-10-31T01:07:45;10.10;;;5.97;;
7027;SDS011;3555;53.248;10.336;2022-10-31T01:10:12;12.10;;;6.00;;
7027;SDS011;3555;53.248;10.336;2022-10-31T01:12:42;13.05;;;6.53;;
7027;SDS011;3555;53.248;10.336;2022-10-31T01:15:10;12.57;;;6.07;;
7027;SDS011;3555;53.248;10.336;2022-10-31T01:17:39;10.40;;;6.22;;
7027;SDS011;3555;53.248;10.336;2022-10-31T01:20:07;10.73;;;6.20;;
7027;SDS011;3555;53.248;10.336;2022-10-31T01:22:35;11.30;;;6.72;;
7027;SDS011;3555;53.248;10.336;2022-10-31T01:25:01;10.82;;;6.63;;
7027;SDS011;3555;53.248;10.336;2022-10-31T01:27:29;14.80;;;6.80;;
7027;SDS011;3555;53.248;10.336;2022-10-31T01:29:58;13.52;;;6.85;;
7027;SDS011;3555;53.248;10.336;2022-10-31T01:32:25;15.30;;;7.50;;
7027;SDS011;3555;53.248;10.336;2022-10-31T01:34:53;14.57;;;7.68;;
7027;SDS011;3555;53.248;10.336;2022-10-31T01:37:20;12.43;;;7.55;;
7027;SDS011;3555;53.248;10.336;2022-10-31T01:39:47;14.63;;;7.47;;
7027;SDS011;3555;53.248;10.336;2022-10-31T01:42:15;13.50;;;7.38;;
7027;SDS011;3555;53.248;10.336;2022-10-31T01:44:50;14.30;;;7.47;;
7027;SDS011;3555;53.248;10.336;2022-10-31T01:47:21;12.38;;;7.25;;
7027;SDS011;3555;53.248;10.336;2022-10-31T01:50:03;18.90;;;9.15;;
7027;SDS011;3555;53.248;10.336;2022-10-31T01:52:36;14.77;;;8.40;;
7027;SDS011;3555;53.248;10.336;2022-10-31T01:55:07;16.83;;;8.60;;
7027;SDS011;3555;53.248;10.336;2022-10-31T01:57:37;17.75;;;9.80;;
7027;SDS011;3555;53.248;10.336;2022-10-31T02:00:08;12.85;;;9.20;;
7027;SDS011;3555;53.248;10.336;2022-10-31T02:02:37;12.75;;;8.68;;
7027;SDS011;3555;53.248;10.336;2022-10-31T02:05:05;15.77;;;10.00;;
7027;SDS011;3555;53.248;10.336;2022-10-31T02:07:36;17.92;;;11.32;;
7027;SDS011;3555;53.248;10.336;2022-10-31T02:10:05;17.02;;;11.05;;
7027;SDS011;3555;53.248;10.336;2022-10-31T02:12:32;20.75;;;11.65;;
7027;SDS011;3555;53.248;10.336;2022-10-31T02:15:02;22.55;;;11.02;;
7027;SDS011;3555;53.248;10.336;2022-10-31T02:17:30;18.60;;;11.45;;
7027;SDS011;3555;53.248;10.336;2022-10-31T02:20:04;20.75;;;11.48;;
7027;SDS011;3555;53.248;10.336;2022-10-31T02:22:39;18.55;;;11.80;;
7027;SDS011;3555;53.248;10.336;2022-10-31T02:25:26;22.45;;;12.65;;
7027;SDS011;3555;53.248;10.336;2022-10-31T02:28:17;18.70;;;12.35;;
7027;SDS011;3555;53.248;10.336;2022-10-31T02:31:01;20.50;;;12.48;;
7027;SDS011;3555;53.248;10.336;2022-10-31T02:33:38;17.58;;;12.98;;
7027;SDS011;3555;53.248;10.336;2022-10-31T02:36:10;18.02;;;12.27;;
7027;SDS011;3555;53.248;10.336;2022-10-31T02:38:47;23.10;;;13.63;;
7027;SDS011;3555;53.248;10.336;2022-10-31T02:41:18;18.30;;;11.88;;
7027;SDS011;3555;53.248;10.336;2022-10-31T02:43:58;22.17;;;13.57;;
7027;SDS011;3555;53.248;10.336;2022-10-31T02:46:34;21.80;;;12.88;;
7027;SDS011;3555;53.248;10.336;2022-10-31T02:49:06;23.17;;;13.68;;
7027;SDS011;3555;53.248;10.336;2022-10-31T02:51:36;21.75;;;11.85;;
7027;SDS011;3555;53.248;10.336;2022-10-31T02:54:04;25.45;;;12.80;;
7027;SDS011;3555;53.248;10.336;2022-10-31T02:56:31;24.77;;;14.88;;
7027;SDS011;3555;53.248;10.336;2022-10-31T02:58:59;22.08;;;13.90;;
7027;SDS011;3555;53.248;10.336;2022-10-31T03:01:33;19.02;;;13.55;;
7027;SDS011;3555;53.248;10.336;2022-10-31T03:04:26;25.27;;;14.18;;
7027;SDS011;3555;53.248;10.336;2022-10-31T03:07:03;23.13;;;13.88;;
7027;SDS011;3555;53.248;10.336;2022-10-31T03:09:38;21.90;;;13.20;;
7027;SDS011;3555;53.248;10.336;2022-10-31T03:12:13;24.23;;;14.27;;
7027;SDS011;3555;53.248;10.336;2022-10-31T03:14:51;19.52;;;13.85;;
7027;SDS011;3555;53.248;10.336;2022-10-31T03:17:26;25.30;;;15.27;;
7027;SDS011;3555;53.248;10.336;2022-10-31T03:19:58;25.13;;;15.27;;
7027;SDS011;3555;53.248;10.336;2022-10-31T03:22:27;28.45;;;15.40;;
7027;SDS011;3555;53.248;10.336;2022-10-31T03:24:58;24.00;;;15.15;;
7027;SDS011;3555;53.248;10.336;2022-10-31T03:27:28;35.72;;;16.88;;
7027;SDS011;3555;53.248;10.336;2022-10-31T03:30:00;25.20;;;15.75;;
7027;SDS011;3555;53.248;10.336;2022-10-31T03:32:31;32.65;;;17.20;;
7027;SDS011;3555;53.248;10.336;2022-10-31T03:35:02;22.35;;;14.43;;
7027;SDS011;3555;53.248;10.336;2022-10-31T03:37:32;27.10;;;16.48;;
7027;SDS011;3555;53.248;10.336;2022-10-31T03:40:00;28.40;;;16.05;;
7027;SDS011;3555;53.248;10.336;2022-10-31T03:42:30;27.13;;;16.45;;
7027;SDS011;3555;53.248;10.336;2022-10-31T03:45:00;22.02;;;13.60;;
7027;SDS011;3555;53.248;10.336;2022-10-31T03:47:32;28.85;;;15.43;;
7027;SDS011;3555;53.248;10.336;2022-10-31T03:49:59;24.35;;;15.70;;
7027;SDS011;3555;53.248;10.336;2022-10-31T03:52:27;27.33;;;16.60;;
7027;SDS011;3555;53.248;10.336;2022-10-31T03:55:02;24.85;;;15.85;;
7027;SDS011;3555;53.248;10.336;2022-10-31T03:57:35;24.90;;;15.63;;
7027;SDS011;3555;53.248;10.336;2022-10-31T04:00:06;26.23;;;15.40;;
7027;SDS011;3555;53.248;10.336;2022-10-31T04:02:37;26.42;;;14.93;;
7027;SDS011;3555;53.248;10.336;2022-10-31T04:05:07;26.95;;;15.60;;
7027;SDS011;3555;53.248;10.336;2022-10-31T04:07:36;27.80;;;16.02;;
7027;SDS011;3555;53.248;10.336;2022-10-31T04:10:08;25.40;;;15.82;;
7027;SDS011;3555;53.248;10.336;2022-10-31T04:12:37;26.55;;;15.23;;
7027;SDS011;3555;53.248;10.336;2022-10-31T04:15:06;21.42;;;14.30;;
7027;SDS011;3555;53.248;10.336;2022-10-31T04:17:36;22.48;;;16.05;;
7027;SDS011;3555;53.248;10.336;2022-10-31T04:20:07;24.38;;;15.52;;
7027;SDS011;3555;53.248;10.336;2022-10-31T04:22:34;24.85;;;15.55;;
7027;SDS011;3555;53.248;10.336;2022-10-31T04:25:01;22.05;;;14.93;;
7027;SDS011;3555;53.248;10.336;2022-10-31T04:27:28;28.00;;;16.23;;
7027;SDS011;3555;53.248;10.336;2022-10-31T04:29:55;22.15;;;15.65;;
7027;SDS011;3555;53.248;10.336;2022-10-31T04:32:22;24.75;;;15.40;;
7027;SDS011;3555;53.248;10.336;2022-10-31T04:34:50;24.85;;;16.05;;
7027;SDS011;3555;53.248;10.336;2022-10-31T04:37:17;22.65;;;15.82;;
7027;SDS011;3555;53.248;10.336;2022-10-31T04:39:44;24.58;;;17.15;;
7027;SDS011;3555;53.248;10.336;2022-10-31T04:42:10;28.70;;;16.40;;
7027;SDS011;3555;53.248;10.336;2022-10-31T04:44:37;24.13;;;14.90;;
7027;SDS011;3555;53.248;10.336;2022-10-31T04:47:04;24.77;;;16.83;;
7027;SDS011;3555;53.248;10.336;2022-10-31T04:49:30;24.92;;;15.82;;
7027;SDS011;3555;53.248;10.336;2022-10-31T04:51:59;28.00;;;15.93;;
7027;SDS011;3555;53.248;10.336;2022-10-31T04:54:25;25.95;;;16.83;;
7027;SDS011;3555;53.248;10.336;2022-10-31T04:56:52;21.60;;;15.48;;
7027;SDS011;3555;53.248;10.336;2022-10-31T04:59:19;27.58;;;16.77;;
7027;SDS011;3555;53.248;10.336;2022-10-31T05:01:46;27.00;;;16.52;;
7027;SDS011;3555;53.248;10.336;2022-10-31T05:04:13;24.60;;;16.55;;
7027;SDS011;3555;53.248;10.336;2022-10-31T05:06:39;29.48;;;17.35;;
7027;SDS011;3555;53.248;10.336;2022-10-31T05:09:08;26.20;;;16.27;;
7027;SDS011;3555;53.248;10.336;2022-10-31T05:11:34;25.08;;;15.88;;
7027;SDS011;3555;53.248;10.336;2022-10-31T05:14:02;24.08;;;15.25;;
7027;SDS011;3555;53.248;10.336;2022-10-31T05:16:28;27.85;;;17.77;;
7027;SDS011;3555;53.248;10.336;2022-10-31T05:18:55;23.38;;;16.20;;
7027;SDS011;3555;53.248;10.336;2022-10-31T05:21:22;25.35;;;16.35;;
7027;SDS011;3555;53.248;10.336;2022-10-31T05:23:49;28.08;;;17.80;;
7027;SDS011;3555;53.248;10.336;2022-10-31T05:26:17;25.98;;;15.00;;
7027;SDS011;3555;53.248;10.336;2022-10-31T05:28:44;29.73;;;18.10;;
7027;SDS011;3555;53.248;10.336;2022-10-31T05:31:10;25.42;;;16.75;;
7027;SDS011;3555;53.248;10.336;2022-10-31T05:33:37;28.48;;;17.95;;
7027;SDS011;3555;53.248;10.336;2022-10-31T05:36:04;23.95;;;16.17;;
7027;SDS011;3555;53.248;10.336;2022-10-31T05:38:31;30.65;;;16.60;;
7027;SDS011;3555;53.248;10.336;2022-10-31T05:40:58;25.63;;;17.33;;
7027;SDS011;3555;53.248;10.336;2022-10-31T05:43:27;27.92;;;16.25;;
7027;SDS011;3555;53.248;10.336;2022-10-31T05:45:54;24.90;;;15.40;;
7027;SDS011;3555;53.248;10.336;2022-10-31T05:48:22;23.95;;;16.08;;
7027;SDS011;3555;53.248;10.336;2022-10-31T05:50:49;29.98;;;18.30;;
7027;SDS011;3555;53.248;10.336;2022-10-31T05:53:16;26.58;;;18.23;;
7027;SDS011;3555;53.248;10.336;2022-10-31T05:55:43;28.13;;;18.90;;
7027;SDS011;3555;53.248;10.336;2022-10-31T05:58:10;24.15;;;17.13;;
7027;SDS011;3555;53.248;10.336;2022-10-31T06:00:38;29.40;;;17.92;;
7027;SDS011;3555;53.248;10.336;2022-10-31T06:03:05;24.77;;;16.77;;
7027;SDS011;3555;53.248;10.336;2022-10-31T06:05:34;27.55;;;16.98;;
7027;SDS011;3555;53.248;10.336;2022-10-31T06:08:00;23.77;;;15.90;;
7027;SDS011;3555;53.248;10.336;2022-10-31T06:10:27;25.92;;;15.60;;
7027;SDS011;3555;53.248;10.336;2022-10-31T06:12:54;25.02;;;15.50;;
7027;SDS011;3555;53.248;10.336;2022-10-31T06:15:21;23.20;;;15.00;;
7027;SDS011;3555;53.248;10.336;2022-10-31T06:17:57;25.48;;;15.90;;
7027;SDS011;3555;53.248;10.336;2022-10-31T06:20:25;25.83;;;15.90;;
7027;SDS011;3555;53.248;10.336;2022-10-31T06:22:52;25.13;;;15.85;;
7027;SDS011;3555;53.248;10.336;2022-10-31T06:25:19;24.17;;;15.23;;
7027;SDS011;3555;53.248;10.336;2022-10-31T06:27:45;22.88;;;15.15;;
7027;SDS011;3555;53.248;10.336;2022-10-31T06:30:12;25.60;;;16.55;;
7027;SDS011;3555;53.248;10.336;2022-10-31T06:32:40;24.95;;;15.40;;
7027;SDS011;3555;53.248;10.336;2022-10-31T06:35:08;23.50;;;14.85;;
7027;SDS011;3555;53.248;10.336;2022-10-31T06:37:35;24.88;;;15.98;;
7027;SDS011;3555;53.248;10.336;2022-10-31T06:40:02;22.83;;;15.43;;
7027;SDS011;3555;53.248;10.336;2022-10-31T06:42:29;27.55;;;16.45;;
7027;SDS011;3555;53.248;10.336;2022-10-31T06:44:56;25.13;;;15.57;;
7027;SDS011;3555;53.248;10.336;2022-10-31T06:47:23;26.90;;;15.95;;
7027;SDS011;3555;53.248;10.336;2022-10-31T06:49:50;23.80;;;14.43;;
7027;SDS011;3555;53.248;10.336;2022-10-31T06:52:18;23.92;;;14.77;;
7027;SDS011;3555;53.248;10.336;2022-10-31T06:54:44;25.10;;;15.45;;
7027;SDS011;3555;53.248;10.336;2022-10-31T06:57:11;28.40;;;16.38;;
7027;SDS011;3555;53.248;10.336;2022-10-31T06:59:38;30.50;;;18.35;;
7027;SDS011;3555;53.248;10.336;2022-10-31T07:02:05;26.80;;;15.55;;
7027;SDS011;3555;53.248;10.336;2022-10-31T07:04:33;25.27;;;16.23;;
7027;SDS011;3555;53.248;10.336;2022-10-31T07:07:00;25.58;;;16.23;;
7027;SDS011;3555;53.248;10.336;2022-10-31T07:09:28;24.55;;;15.43;;
7027;SDS011;3555;53.248;10.336;2022-10-31T07:11:55;25.13;;;14.85;;
7027;SDS011;3555;53.248;10.336;2022-10-31T07:14:21;25.45;;;15.07;;
7027;SDS011;3555;53.248;10.336;2022-10-31T07:16:48;23.58;;;15.00;;
7027;SDS011;3555;53.248;10.336;2022-10-31T07:19:16;23.77;;;14.80;;
7027;SDS011;3555;53.248;10.336;2022-10-31T07:21:43;25.58;;;13.95;;
7027;SDS011;3555;53.248;10.336;2022-10-31T07:24:09;23.65;;;14.18;;
7027;SDS011;3555;53.248;10.336;2022-10-31T07:26:38;23.92;;;14.80;;
7027;SDS011;3555;53.248;10.336;2022-10-31T07:29:04;24.00;;;14.88;;
7027;SDS011;3555;53.248;10.336;2022-10-31T07:31:31;23.85;;;14.07;;
7027;SDS011;3555;53.248;10.336;2022-10-31T07:33:58;21.50;;;12.95;;
7027;SDS011;3555;53.248;10.336;2022-10-31T07:36:25;24.20;;;14.48;;
7027;SDS011;3555;53.248;10.336;2022-10-31T07:38:51;21.70;;;13.73;;
7027;SDS011;3555;53.248;10.336;2022-10-31T07:41:18;26.48;;;13.38;;
7027;SDS011;3555;53.248;10.336;2022-10-31T07:43:46;22.77;;;13.90;;
7027;SDS011;3555;53.248;10.336;2022-10-31T07:46:13;21.90;;;13.38;;
7027;SDS011;3555;53.248;10.336;2022-10-31T07:48:40;24.15;;;13.75;;
7027;SDS011;3555;53.248;10.336;2022-10-31T07:51:06;22.73;;;12.95;;
7027;SDS011;3555;53.248;10.336;2022-10-31T07:53:33;21.05;;;13.60;;
7027;SDS011;3555;53.248;10.336;2022-10-31T07:56:00;19.17;;;12.50;;
7027;SDS011;3555;53.248;10.336;2022-10-31T07:58:27;23.88;;;12.93;;
7027;SDS011;3555;53.248;10.336;2022-10-31T08:00:55;24.10;;;13.63;;
7027;SDS011;3555;53.248;10.336;2022-10-31T08:03:23;21.38;;;13.60;;
7027;SDS011;3555;53.248;10.336;2022-10-31T08:05:50;17.42;;;10.77;;
7027;SDS011;3555;53.248;10.336;2022-10-31T08:08:16;17.50;;;10.25;;
7027;SDS011;3555;53.248;10.336;2022-10-31T08:10:43;19.65;;;11.95;;
7027;SDS011;3555;53.248;10.336;2022-10-31T08:13:11;18.20;;;10.65;;
7027;SDS011;3555;53.248;10.336;2022-10-31T08:15:39;18.48;;;11.98;;
7027;SDS011;3555;53.248;10.336;2022-10-31T08:18:10;19.15;;;11.43;;
7027;SDS011;3555;53.248;10.336;2022-10-31T08:20:39;18.42;;;11.57;;
7027;SDS011;3555;53.248;10.336;2022-10-31T08:23:05;18.98;;;11.52;;
7027;SDS011;3555;53.248;10.336;2022-10-31T08:25:33;17.52;;;11.00;;
7027;SDS011;3555;53.248;10.336;2022-10-31T08:28:00;16.80;;;9.77;;
7027;SDS011;3555;53.248;10.336;2022-10-31T08:30:28;20.70;;;11.75;;
7027;SDS011;3555;53.248;10.336;2022-10-31T08:32:57;16.52;;;10.25;;
7027;SDS011;3555;53.248;10.336;2022-10-31T08:35:27;16.58;;;10.13;;
7027;SDS011;3555;53.248;10.336;2022-10-31T08:37:54;18.52;;;10.73;;
7027;SDS011;3555;53.248;10.336;2022-10-31T08:40:21;13.85;;;9.73;;
7027;SDS011;3555;53.248;10.336;2022-10-31T08:42:54;18.77;;;10.07;;
7027;SDS011;3555;53.248;10.336;2022-10-31T08:45:22;18.25;;;10.63;;
7027;SDS011;3555;53.248;10.336;2022-10-31T08:47:49;19.77;;;10.77;;
7027;SDS011;3555;53.248;10.336;2022-10-31T08:50:16;16.00;;;9.40;;
7027;SDS011;3555;53.248;10.336;2022-10-31T08:52:45;13.57;;;9.35;;
7027;SDS011;3555;53.248;10.336;2022-10-31T08:55:12;14.05;;;9.23;;
7027;SDS011;3555;53.248;10.336;2022-10-31T08:57:39;13.85;;;9.05;;
7027;SDS011;3555;53.248;10.336;2022-10-31T09:00:06;17.92;;;9.80;;
7027;SDS011;3555;53.248;10.336;2022-10-31T09:02:34;17.67;;;10.07;;
7027;SDS011;3555;53.248;10.336;2022-10-31T09:05:01;17.27;;;10.27;;
7027;SDS011;3555;53.248;10.336;2022-10-31T09:07:28;14.93;;;9.30;;
7027;SDS011;3555;53.248;10.336;2022-10-31T09:09:57;14.40;;;9.00;;
7027;SDS011;3555;53.248;10.336;2022-10-31T09:12:23;21.13;;;9.88;;
7027;SDS011;3555;53.248;10.336;2022-10-31T09:14:50;16.75;;;10.15;;
7027;SDS011;3555;53.248;10.336;2022-10-31T09:17:17;12.18;;;7.05;;
7027;SDS011;3555;53.248;10.336;2022-10-31T09:19:44;14.10;;;8.82;;
7027;SDS011;3555;53.248;10.336;2022-10-31T09:22:10;13.13;;;8.60;;
7027;SDS011;3555;53.248;10.336;2022-10-31T09:24:37;17.75;;;9.40;;
7027;SDS011;3555;53.248;10.336;2022-10-31T09:27:05;14.13;;;8.95;;
7027;SDS011;3555;53.248;10.336;2022-10-31T09:29:34;13.27;;;8.48;;
7027;SDS011;3555;53.248;10.336;2022-10-31T09:32:00;14.93;;;9.13;;
7027;SDS011;3555;53.248;10.336;2022-10-31T09:34:27;17.80;;;9.45;;
7027;SDS011;3555;53.248;10.336;2022-10-31T09:36:54;16.17;;;9.20;;
7027;SDS011;3555;53.248;10.336;2022-10-31T09:39:21;13.98;;;8.43;;
7027;SDS011;3555;53.248;10.336;2022-10-31T09:41:52;16.77;;;8.95;;
7027;SDS011;3555;53.248;10.336;2022-10-31T09:44:36;17.38;;;8.93;;
7027;SDS011;3555;53.248;10.336;2022-10-31T09:47:13;12.38;;;7.95;;
7027;SDS011;3555;53.248;10.336;2022-10-31T09:49:56;12.15;;;7.47;;
7027;SDS011;3555;53.248;10.336;2022-10-31T09:52:33;13.93;;;7.47;;
7027;SDS011;3555;53.248;10.336;2022-10-31T09:55:04;13.20;;;8.00;;
7027;SDS011;3555;53.248;10.336;2022-10-31T09:57:38;17.85;;;8.27;;
7027;SDS011;3555;53.248;10.336;2022-10-31T10:00:14;13.20;;;7.93;;
7027;SDS011;3555;53.248;10.336;2022-10-31T10:02:44;10.80;;;7.18;;
7027;SDS011;3555;53.248;10.336;2022-10-31T10:05:15;11.05;;;6.90;;
7027;SDS011;3555;53.248;10.336;2022-10-31T10:07:49;14.57;;;7.07;;
7027;SDS011;3555;53.248;10.336;2022-10-31T10:10:24;11.43;;;6.55;;
7027;SDS011;3555;53.248;10.336;2022-10-31T10:13:09;11.15;;;6.43;;
7027;SDS011;3555;53.248;10.336;2022-10-31T10:15:50;9.45;;;6.25;;
7027;SDS011;3555;53.248;10.336;2022-10-31T10:18:30;9.57;;;5.75;;
7027;SDS011;3555;53.248;10.336;2022-10-31T10:21:06;9.82;;;5.70;;
7027;SDS011;3555;53.248;10.336;2022-10-31T10:23:45;9.70;;;5.65;;
7027;SDS011;3555;53.248;10.336;2022-10-31T10:26:24;10.18;;;6.68;;
7027;SDS011;3555;53.248;10.336;2022-10-31T10:28:57;6.47;;;5.25;;
7027;SDS011;3555;53.248;10.336;2022-10-31T10:31:28;11.35;;;5.82;;
7027;SDS011;3555;53.248;10.336;2022-10-31T10:34:01;8.93;;;5.15;;
7027;SDS011;3555;53.248;10.336;2022-10-31T10:36:36;10.68;;;5.30;;
7027;SDS011;3555;53.248;10.336;2022-10-31T10:39:08;6.97;;;4.38;;
7027;SDS011;3555;53.248;10.336;2022-10-31T10:41:43;8.70;;;4.72;;
7027;SDS011;3555;53.248;10.336;2022-10-31T10:44:26;6.90;;;4.65;;
7027;SDS011;3555;53.248;10.336;2022-10-31T10:47:12;7.45;;;4.25;;
7027;SDS011;3555;53.248;10.336;2022-10-31T10:49:56;10.50;;;5.13;;
7027;SDS011;3555;53.248;10.336;2022-10-31T10:52:31;7.18;;;4.03;;
7027;SDS011;3555;53.248;10.336;2022-10-31T10:55:11;6.90;;;4.10;;
7027;SDS011;3555;53.248;10.336;2022-10-31T10:57:52;10.77;;;5.13;;
7027;SDS011;3555;53.248;10.336;2022-10-31T11:00:23;9.18;;;5.22;;
7027;SDS011;3555;53.248;10.336;2022-10-31T11:02:52;8.68;;;5.05;;
7027;SDS011;3555;53.248;10.336;2022-10-31T11:05:22;8.85;;;4.57;;
7027;SDS011;3555;53.248;10.336;2022-10-31T11:07:50;9.60;;;5.45;;
7027;SDS011;3555;53.248;10.336;2022-10-31T11:10:17;7.65;;;5.07;;
7027;SDS011;3555;53.248;10.336;2022-10-31T11:12:45;10.00;;;4.88;;
7027;SDS011;3555;53.248;10.336;2022-10-31T11:15:24;7.53;;;4.13;;
7027;SDS011;3555;53.248;10.336;2022-10-31T11:17:54;7.38;;;4.57;;
7027;SDS011;3555;53.248;10.336;2022-10-31T11:20:31;8.25;;;4.30;;
7027;SDS011;3555;53.248;10.336;2022-10-31T11:23:01;8.57;;;4.20;;
7027;SDS011;3555;53.248;10.336;2022-10-31T11:25:47;8.20;;;3.80;;
7027;SDS011;3555;53.248;10.336;2022-10-31T11:28:16;7.55;;;4.00;;
7027;SDS011;3555;53.248;10.336;2022-10-31T11:30:43;6.28;;;3.95;;
7027;SDS011;3555;53.248;10.336;2022-10-31T11:33:16;8.75;;;4.03;;
7027;SDS011;3555;53.248;10.336;2022-10-31T11:35:46;7.07;;;4.32;;
7027;SDS011;3555;53.248;10.336;2022-10-31T11:38:15;7.70;;;3.88;;
7027;SDS011;3555;53.248;10.336;2022-10-31T11:40:51;6.65;;;3.63;;
7027;SDS011;3555;53.248;10.336;2022-10-31T11:43:20;8.90;;;4.90;;
7027;SDS011;3555;53.248;10.336;2022-10-31T11:45:47;9.18;;;4.18;;
7027;SDS011;3555;53.248;10.336;2022-10-31T11:48:17;9.52;;;3.80;;
7027;SDS011;3555;53.248;10.336;2022-10-31T11:50:47;6.85;;;4.30;;
7027;SDS011;3555;53.248;10.336;2022-10-31T11:53:17;6.68;;;3.42;;
7027;SDS011;3555;53.248;10.336;2022-10-31T11:55:46;6.65;;;3.85;;
7027;SDS011;3555;53.248;10.336;2022-10-31T11:58:25;7.22;;;3.75;;
7027;SDS011;3555;53.248;10.336;2022-10-31T12:00:53;8.55;;;4.35;;
7027;SDS011;3555;53.248;10.336;2022-10-31T12:03:32;5.40;;;3.78;;
7027;SDS011;3555;53.248;10.336;2022-10-31T12:06:05;6.40;;;3.70;;
7027;SDS011;3555;53.248;10.336;2022-10-31T12:08:35;7.40;;;3.72;;
7027;SDS011;3555;53.248;10.336;2022-10-31T12:11:06;8.38;;;3.97;;
7027;SDS011;3555;53.248;10.336;2022-10-31T12:13:43;7.22;;;3.67;;
7027;SDS011;3555;53.248;10.336;2022-10-31T12:16:25;6.80;;;3.28;;
7027;SDS011;3555;53.248;10.336;2022-10-31T12:18:58;7.47;;;3.70;;
7027;SDS011;3555;53.248;10.336;2022-10-31T12:21:33;8.40;;;4.05;;
7027;SDS011;3555;53.248;10.336;2022-10-31T12:24:13;5.40;;;3.33;;
7027;SDS011;3555;53.248;10.336;2022-10-31T12:26:57;8.48;;;4.00;;
7027;SDS011;3555;53.248;10.336;2022-10-31T12:29:34;6.25;;;3.60;;
7027;SDS011;3555;53.248;10.336;2022-10-31T12:32:14;4.35;;;3.22;;
7027;SDS011;3555;53.248;10.336;2022-10-31T12:34:54;7.75;;;3.50;;
7027;SDS011;3555;53.248;10.336;2022-10-31T12:37:42;7.20;;;3.17;;
7027;SDS011;3555;53.248;10.336;2022-10-31T12:40:27;8.20;;;3.50;;
7027;SDS011;3555;53.248;10.336;2022-10-31T12:43:06;7.47;;;3.90;;
7027;SDS011;3555;53.248;10.336;2022-10-31T12:45:44;7.05;;;3.58;;
7027;SDS011;3555;53.248;10.336;2022-10-31T12:48:24;4.70;;;3.08;;
7027;SDS011;3555;53.248;10.336;2022-10-31T12:51:07;8.32;;;2.90;;
7027;SDS011;3555;53.248;10.336;2022-10-31T12:53:44;5.88;;;3.00;;
7027;SDS011;3555;53.248;10.336;2022-10-31T12:56:22;6.28;;;2.80;;
7027;SDS011;3555;53.248;10.336;2022-10-31T12:58:59;6.28;;;3.25;;
7027;SDS011;3555;53.248;10.336;2022-10-31T13:01:31;6.53;;;3.53;;
7027;SDS011;3555;53.248;10.336;2022-10-31T13:04:02;5.78;;;2.63;;
7027;SDS011;3555;53.248;10.336;2022-10-31T13:06:34;6.03;;;3.10;;
7027;SDS011;3555;53.248;10.336;2022-10-31T13:09:05;6.85;;;3.50;;
7027;SDS011;3555;53.248;10.336;2022-10-31T13:11:35;6.05;;;2.70;;
7027;SDS011;3555;53.248;10.336;2022-10-31T13:14:05;5.28;;;2.90;;
7027;SDS011;3555;53.248;10.336;2022-10-31T13:16:36;6.47;;;3.00;;
7027;SDS011;3555;53.248;10.336;2022-10-31T13:19:07;6.15;;;2.72;;
7027;SDS011;3555;53.248;10.336;2022-10-31T13:21:41;5.00;;;3.20;;
7027;SDS011;3555;53.248;10.336;2022-10-31T13:24:21;6.30;;;3.05;;
7027;SDS011;3555;53.248;10.336;2022-10-31T13:26:53;6.63;;;3.30;;
7027;SDS011;3555;53.248;10.336;2022-10-31T13:29:24;6.45;;;3.30;;
7027;SDS011;3555;53.248;10.336;2022-10-31T13:31:54;7.70;;;3.42;;
7027;SDS011;3555;53.248;10.336;2022-10-31T13:34:23;6.65;;;3.30;;
7027;SDS011;3555;53.248;10.336;2022-10-31T13:36:57;6.05;;;3.40;;
7027;SDS011;3555;53.248;10.336;2022-10-31T13:39:40;7.95;;;3.38;;
7027;SDS011;3555;53.248;10.336;2022-10-31T13:42:23;7.07;;;3.15;;
7027;SDS011;3555;53.248;10.336;2022-10-31T13:45:08;6.60;;;3.55;;
7027;SDS011;3555;53.248;10.336;2022-10-31T13:47:38;7.63;;;2.88;;
7027;SDS011;3555;53.248;10.336;2022-10-31T13:50:19;6.05;;;2.83;;
7027;SDS011;3555;53.248;10.336;2022-10-31T13:52:48;4.88;;;2.92;;
7027;SDS011;3555;53.248;10.336;2022-10-31T13:55:34;4.95;;;2.88;;
7027;SDS011;3555;53.248;10.336;2022-10-31T13:58:03;4.72;;;3.00;;
7027;SDS011;3555;53.248;10.336;2022-10-31T14:00:30;5.50;;;3.35;;
7027;SDS011;3555;53.248;10.336;2022-10-31T14:03:00;5.50;;;2.90;;
7027;SDS011;3555;53.248;10.336;2022-10-31T14:05:27;7.45;;;3.38;;
7027;SDS011;3555;53.248;10.336;2022-10-31T14:07:58;9.70;;;3.70;;
7027;SDS011;3555;53.248;10.336;2022-10-31T14:10:27;5.65;;;3.25;;
7027;SDS011;3555;53.248;10.336;2022-10-31T14:13:03;9.13;;;2.90;;
7027;SDS011;3555;53.248;10.336;2022-10-31T14:15:31;7.00;;;3.55;;
7027;SDS011;3555;53.248;10.336;2022-10-31T14:17:59;8.70;;;3.13;;
7027;SDS011;3555;53.248;10.336;2022-10-31T14:20:32;5.45;;;3.60;;
7027;SDS011;3555;53.248;10.336;2022-10-31T14:28:57;8.00;;;4.43;;
7027;SDS011;3555;53.248;10.336;2022-10-31T14:31:30;6.97;;;4.18;;
7027;SDS011;3555;53.248;10.336;2022-10-31T14:33:59;8.68;;;3.75;;
7027;SDS011;3555;53.248;10.336;2022-10-31T14:36:30;7.07;;;4.28;;
7027;SDS011;3555;53.248;10.336;2022-10-31T14:39:08;6.65;;;3.63;;
7027;SDS011;3555;53.248;10.336;2022-10-31T14:41:46;8.55;;;4.32;;
7027;SDS011;3555;53.248;10.336;2022-10-31T14:44:38;8.02;;;3.83;;
7027;SDS011;3555;53.248;10.336;2022-10-31T14:47:23;8.95;;;4.20;;
7027;SDS011;3555;53.248;10.336;2022-10-31T14:50:04;8.25;;;4.20;;
7027;SDS011;3555;53.248;10.336;2022-10-31T14:52:49;6.32;;;4.43;;
7027;SDS011;3555;53.248;10.336;2022-10-31T14:55:19;10.30;;;4.40;;
7027;SDS011;3555;53.248;10.336;2022-10-31T14:57:48;9.43;;;4.28;;
7027;SDS011;3555;53.248;10.336;2022-10-31T15:00:18;8.98;;;3.42;;
7027;SDS011;3555;53.248;10.336;2022-10-31T15:02:49;5.22;;;3.38;;
7027;SDS011;3555;53.248;10.336;2022-10-31T15:05:22;6.40;;;3.40;;
7027;SDS011;3555;53.248;10.336;2022-10-31T15:07:50;10.93;;;4.72;;
7027;SDS011;3555;53.248;10.336;2022-10-31T15:10:22;9.52;;;4.57;;
7027;SDS011;3555;53.248;10.336;2022-10-31T15:12:50;7.32;;;4.53;;